Terminal Aerodrome Forecast
Issued by NWS

Home | Current Version | Previous Version | Text Only | Print | Product List | Glossary On
Versions: 1 2 3 4 5 6 7 8 9 10 11 12 13 14 15 16 17 18 19 20 21 22
000
FTUS43 KDLH 291400 AAC
TAFHYR
TAF AMD
KHYR 291447Z 2915/3012 VRB05KT P6SM VCTS OVC007CB
      TEMPO 2915/2916 27025G40KT 1/2SM TSRA OVC004CB
     FM291600 VRB04KT 4SM BR VCSH OVC008
     FM291900 19005KT P6SM VCTS BKN015CB BKN050
     FM292100 VRB03KT 6SM TSRA BR BKN025CB
     FM300100 VRB03KT 4SM -RA BR VCTS OVC015CB
     FM300600 00000KT 1SM BR OVC005=

USA.gov is the U.S. government's official web portal to all federal, state and local government web resources and services.